Time;durP1;ratioP1;P1;durP2;ratioP2;P2;SDS_P1;SDS_P2;PMS_P1;PMS_P2;Temp;Humidity;BMP_temperature;BMP_pressure;BME280_temperature;BME280_humidity;BME280_pressure;Samples;Min_cycle;Max_cycle;Signal;HPM_P1;HPM_P2
2023/06/09 00:01:15;;;;;;;13.20;9.30;;;;;;;;;;106489;1279;25300;-84
2023/06/09 00:03:55;;;;;;;13.70;8.10;;;;;;;;;;106450;1284;22534;-83
2023/06/09 00:06:23;;;;;;;13.20;8.70;;;;;;;;;;106887;1260;22607;-87
2023/06/09 00:08:50;;;;;;;13.80;8.50;;;;;;;;;;106990;1276;24228;-84
2023/06/09 00:11:30;;;;;;;14.10;8.40;;;;;;;;;;107084;1276;25275;-84
2023/06/09 00:13:57;;;;;;;13.70;7.80;;;;;;;;;;106955;1276;24905;-86
2023/06/09 00:16:32;;;;;;;11.00;7.20;;;;;;;;;;106900;1277;24186;-87
2023/06/09 00:19:03;;;;;;;13.80;8.20;;;;;;;;;;106960;1277;25492;-83
2023/06/09 00:22:19;;;;;;;13.10;7.90;;;;;;;;;;106956;1254;22534;-85
2023/06/09 00:24:21;;;;;;;11.90;8.20;;;;;;;;;;106893;1277;22521;-83
2023/06/09 00:26:51;;;;;;;12.40;8.40;;;;;;;;;;106959;1257;25277;-83
2023/06/09 00:29:19;;;;;;;13.70;8.80;;;;;;;;;;106866;1277;24227;-85
2023/06/09 00:31:49;;;;;;;13.50;9.30;;;;;;;;;;106956;1277;22517;-89
2023/06/09 00:34:19;;;;;;;13.30;8.40;;;;;;;;;;107233;1272;22521;-90
2023/06/09 00:36:54;;;;;;;14.20;7.80;;;;;;;;;;107275;1256;25312;-82
2023/06/09 00:39:27;;;;;;;14.40;8.10;;;;;;;;;;107271;1272;23870;-86
2023/06/09 00:41:53;;;;;;;13.70;8.40;;;;;;;;;;107251;1272;24208;-87
2023/06/09 00:44:25;;;;;;;12.40;8.50;;;;;;;;;;107235;1272;22517;-85
2023/06/09 00:46:57;;;;;;;15.70;8.30;;;;;;;;;;107141;1258;22482;-84
2023/06/09 00:49:50;;;;;;;13.60;8.30;;;;;;;;;;107244;1273;24208;-85
2023/06/09 00:52:27;;;;;;;13.10;8.60;;;;;;;;;;107282;1273;22486;-87
2023/06/09 00:55:00;;;;;;;12.20;8.40;;;;;;;;;;107280;1273;24611;-86
2023/06/09 00:57:37;;;;;;;12.00;8.30;;;;;;;;;;107300;1254;24352;-87
2023/06/09 01:00:16;;;;;;;12.70;7.60;;;;;;;;;;107260;1273;22683;-82
2023/06/09 01:02:52;;;;;;;11.80;7.30;;;;;;;;;;107248;1273;22640;-86
2023/06/09 01:05:23;;;;;;;13.10;7.90;;;;;;;;;;107281;1273;24186;-82
2023/06/09 01:07:57;;;;;;;12.60;8.00;;;;;;;;;;107303;1272;24205;-85
2023/06/09 01:10:45;;;;;;;14.00;8.20;;;;;;;;;;107306;1272;26474;-84
2023/06/09 01:13:24;;;;;;;17.60;9.00;;;;;;;;;;107325;1273;25868;-87
2023/06/09 01:16:05;;;;;;;15.60;8.70;;;;;;;;;;107243;1272;22527;-83
2023/06/09 01:18:33;;;;;;;12.60;8.10;;;;;;;;;;107030;1257;23054;-87
2023/06/09 01:21:32;;;;;;;15.60;7.70;;;;;;;;;;107250;1273;25329;-85
2023/06/09 01:24:01;;;;;;;13.40;8.00;;;;;;;;;;107271;1273;26455;-83
2023/06/09 01:26:35;;;;;;;17.70;8.40;;;;;;;;;;107248;1273;24240;-82
2023/06/09 01:29:03;;;;;;;16.00;8.40;;;;;;;;;;107168;1263;22547;-82
2023/06/09 01:31:45;;;;;;;12.60;8.80;;;;;;;;;;107228;1269;25562;-82
2023/06/09 01:34:32;;;;;;;15.80;8.60;;;;;;;;;;107239;1272;23645;-82
2023/06/09 01:37:10;;;;;;;13.90;8.90;;;;;;;;;;107272;1251;22521;-84
2023/06/09 01:39:40;;;;;;;13.30;9.30;;;;;;;;;;107314;1272;22530;-82
2023/06/09 01:42:09;;;;;;;15.20;8.90;;;;;;;;;;107256;1272;22611;-88
2023/06/09 01:44:52;;;;;;;13.70;8.20;;;;;;;;;;107034;1272;22643;-87
2023/06/09 01:47:31;;;;;;;14.00;8.00;;;;;;;;;;107321;1272;22670;-87
2023/06/09 01:50:16;;;;;;;13.40;8.40;;;;;;;;;;107383;1272;22516;-87
2023/06/09 01:52:48;;;;;;;13.30;9.00;;;;;;;;;;107371;1272;22748;-88
2023/06/09 01:55:30;;;;;;;14.20;8.60;;;;;;;;;;107330;1272;24267;-89
2023/06/09 01:58:35;;;;;;;;;;;;;;;;;;;;;
2023/06/09 02:01:06;;;;;;;18.90;9.60;;;;;;;;;;107298;1272;25321;-82
2023/06/09 02:03:35;;;;;;;14.30;9.30;;;;;;;;;;107230;1272;22513;-83
2023/06/09 02:06:03;;;;;;;13.50;8.50;;;;;;;;;;107143;1272;25259;-83
2023/06/09 02:08:31;;;;;;;12.50;7.90;;;;;;;;;;107268;1255;22526;-85
2023/06/09 02:11:03;;;;;;;14.10;8.40;;;;;;;;;;107275;1272;25233;-85
2023/06/09 02:13:36;;;;;;;16.50;7.90;;;;;;;;;;107271;1272;22517;-87
2023/06/09 02:16:08;;;;;;;11.10;7.80;;;;;;;;;;107299;1272;22513;-86
2023/06/09 02:18:38;;;;;;;17.60;9.10;;;;;;;;;;107299;1266;22515;-82
2023/06/09 02:21:12;;;;;;;14.30;8.70;;;;;;;;;;107259;1272;22611;-88
2023/06/09 02:23:42;;;;;;;13.70;8.40;;;;;;;;;;107261;1272;22525;-82
2023/06/09 02:26:22;;;;;;;17.00;10.10;;;;;;;;;;107283;1272;22509;-86
2023/06/09 02:29:08;;;;;;;14.80;9.00;;;;;;;;;;107271;1254;23369;-83
2023/06/09 02:31:36;;;;;;;13.30;9.20;;;;;;;;;;107184;1263;23154;-89
2023/06/09 02:34:10;;;;;;;14.20;8.60;;;;;;;;;;107261;1272;24342;-87
2023/06/09 02:36:44;;;;;;;13.40;8.30;;;;;;;;;;107195;1272;22477;-85
2023/06/09 02:39:14;;;;;;;13.80;7.70;;;;;;;;;;107293;1272;25379;-83
2023/06/09 02:41:53;;;;;;;;;;;;;;;;;;;;;
2023/06/09 02:44:42;;;;;;;15.10;8.90;;;;;;;;;;107293;1272;25274;-84
2023/06/09 02:47:28;;;;;;;14.50;8.30;;;;;;;;;;107262;1251;22641;-84
2023/06/09 02:50:05;;;;;;;13.40;8.60;;;;;;;;;;107133;1257;22528;-88
2023/06/09 02:52:32;;;;;;;14.40;8.80;;;;;;;;;;107297;1272;24236;-87
2023/06/09 02:55:20;;;;;;;15.40;8.40;;;;;;;;;;107282;1272;22516;-84
2023/06/09 02:57:51;;;;;;;13.90;8.60;;;;;;;;;;107387;1272;22595;-86
2023/06/09 03:00:25;;;;;;;12.70;7.50;;;;;;;;;;107262;1256;24182;-83
2023/06/09 03:02:56;;;;;;;12.90;7.80;;;;;;;;;;107218;1272;22514;-86
2023/06/09 03:05:28;;;;;;;12.40;8.10;;;;;;;;;;107251;1272;22592;-87
2023/06/09 03:08:10;;;;;;;13.80;8.30;;;;;;;;;;107300;1272;24208;-89
2023/06/09 03:10:58;;;;;;;13.60;8.10;;;;;;;;;;107262;1266;22627;-87
2023/06/09 03:13:27;;;;;;;13.80;8.50;;;;;;;;;;107277;1272;24351;-88
2023/06/09 03:16:43;;;;;;;13.60;8.00;;;;;;;;;;107226;1272;22700;-87
2023/06/09 03:19:08;;;;;;;14.40;7.90;;;;;;;;;;107424;1251;22534;-85
2023/06/09 03:21:38;;;;;;;13.10;7.80;;;;;;;;;;107019;1272;23866;-87
2023/06/09 03:24:08;;;;;;;11.90;7.40;;;;;;;;;;107313;1272;24242;-89
2023/06/09 03:26:46;;;;;;;16.00;8.30;;;;;;;;;;107256;1272;22511;-88
2023/06/09 03:29:59;;;;;;;12.60;8.00;;;;;;;;;;107284;1261;22538;-87
2023/06/09 03:32:16;;;;;;;16.80;8.70;;;;;;;;;;107215;1272;25395;-82
2023/06/09 03:35:05;;;;;;;12.70;8.50;;;;;;;;;;107305;1272;23565;-86
2023/06/09 03:37:35;;;;;;;15.10;8.70;;;;;;;;;;107254;1271;25356;-87
2023/06/09 03:40:36;;;;;;;13.10;7.70;;;;;;;;;;107276;1252;24222;-85
2023/06/09 03:43:11;;;;;;;13.10;8.40;;;;;;;;;;107267;1272;25462;-86
2023/06/09 03:45:45;;;;;;;15.50;8.70;;;;;;;;;;107036;1272;22543;-87
2023/06/09 03:48:12;;;;;;;12.80;8.20;;;;;;;;;;107263;1272;22587;-85
2023/06/09 03:50:54;;;;;;;15.90;8.70;;;;;;;;;;107189;1272;22662;-82
2023/06/09 03:53:21;;;;;;;13.40;9.10;;;;;;;;;;107269;1272;24326;-82
2023/06/09 03:56:03;;;;;;;;;;;;;;;;;;;;;
2023/06/09 03:58:41;;;;;;;17.90;9.80;;;;;;;;;;107280;1272;22636;-83
2023/06/09 04:01:28;;;;;;;;;;;;;;;;;;;;;
2023/06/09 04:04:15;;;;;;;14.60;8.70;;;;;;;;;;107356;1272;25249;-87
2023/06/09 04:06:50;;;;;;;16.80;8.90;;;;;;;;;;107066;1272;25321;-84
2023/06/09 04:09:23;;;;;;;14.10;8.50;;;;;;;;;;107213;1272;22533;-83
2023/06/09 04:11:52;;;;;;;13.20;8.70;;;;;;;;;;107304;1252;22570;-81
2023/06/09 04:14:25;;;;;;;12.90;7.60;;;;;;;;;;107284;1272;22530;-85
2023/06/09 04:16:52;;;;;;;13.80;8.70;;;;;;;;;;110683;1272;22088;-82
2023/06/09 04:19:20;;;;;;;15.90;9.30;;;;;;;;;;110689;1272;22150;-79
2023/06/09 04:21:48;;;;;;;14.20;9.10;;;;;;;;;;110697;1256;22823;-79
2023/06/09 04:24:17;;;;;;;13.10;7.90;;;;;;;;;;110696;1272;22094;-79
2023/06/09 04:26:48;;;;;;;13.90;7.70;;;;;;;;;;110693;1253;22168;-79
2023/06/09 04:29:15;;;;;;;12.50;8.10;;;;;;;;;;110678;1273;22096;-80
2023/06/09 04:31:43;;;;;;;19.90;8.30;;;;;;;;;;110715;1255;22867;-79
2023/06/09 04:34:12;;;;;;;13.30;8.30;;;;;;;;;;110652;1259;22178;-78
2023/06/09 04:36:44;;;;;;;14.60;8.20;;;;;;;;;;110742;1272;22728;-79
2023/06/09 04:39:12;;;;;;;17.30;7.90;;;;;;;;;;110637;1273;22927;-79
2023/06/09 04:41:39;;;;;;;14.40;8.20;;;;;;;;;;110882;1257;22121;-78
2023/06/09 04:44:06;;;;;;;12.60;8.20;;;;;;;;;;110666;1274;22285;-78
2023/06/09 04:46:37;;;;;;;14.70;8.20;;;;;;;;;;110664;1274;22088;-79
2023/06/09 04:49:11;;;;;;;13.40;7.50;;;;;;;;;;110639;1259;22097;-78
2023/06/09 04:51:41;;;;;;;13.90;7.70;;;;;;;;;;110887;1257;22064;-78
2023/06/09 04:54:10;;;;;;;12.80;8.10;;;;;;;;;;110564;1273;22073;-78
2023/06/09 04:56:38;;;;;;;16.70;9.20;;;;;;;;;;110619;1273;22264;-78
2023/06/09 04:59:06;;;;;;;16.80;9.00;;;;;;;;;;110684;1253;22126;-78
2023/06/09 05:01:33;;;;;;;17.10;9.70;;;;;;;;;;110783;1253;22178;-78
2023/06/09 05:04:00;;;;;;;17.90;9.40;;;;;;;;;;110634;1274;22973;-78
2023/06/09 05:06:26;;;;;;;17.80;9.90;;;;;;;;;;110672;1274;22744;-78
2023/06/09 05:08:55;;;;;;;19.70;9.80;;;;;;;;;;110645;1274;22135;-78
2023/06/09 05:11:22;;;;;;;17.80;9.80;;;;;;;;;;110651;1250;22804;-80
2023/06/09 05:13:49;;;;;;;17.30;10.40;;;;;;;;;;110639;1273;22201;-78
2023/06/09 05:16:16;;;;;;;17.40;10.00;;;;;;;;;;110630;1273;22324;-78
2023/06/09 05:18:44;;;;;;;18.90;11.10;;;;;;;;;;110664;1273;22250;-78
2023/06/09 05:21:12;;;;;;;18.80;11.30;;;;;;;;;;110649;1273;22105;-78
2023/06/09 05:23:38;;;;;;;17.80;10.60;;;;;;;;;;110674;1256;22321;-78
2023/06/09 05:26:05;;;;;;;18.20;10.80;;;;;;;;;;110671;1274;22212;-79
2023/06/09 05:28:33;;;;;;;16.30;10.20;;;;;;;;;;110645;1274;22817;-78
2023/06/09 05:30:59;;;;;;;19.50;10.60;;;;;;;;;;110523;1274;22136;-78
2023/06/09 05:33:27;;;;;;;17.00;10.20;;;;;;;;;;110970;1255;22137;-78
2023/06/09 05:35:54;;;;;;;14.80;9.70;;;;;;;;;;110619;1273;21716;-78
2023/06/09 05:38:23;;;;;;;19.60;10.50;;;;;;;;;;110635;1274;22252;-78
2023/06/09 05:40:49;;;;;;;16.90;11.00;;;;;;;;;;110667;1274;22095;-78
2023/06/09 05:43:16;;;;;;;15.90;10.80;;;;;;;;;;111006;1256;22509;-78
2023/06/09 05:45:43;;;;;;;17.60;10.70;;;;;;;;;;110607;1274;22120;-78
2023/06/09 05:48:10;;;;;;;16.20;10.50;;;;;;;;;;110634;1274;22089;-78
2023/06/09 05:50:37;;;;;;;17.60;10.40;;;;;;;;;;110634;1274;22095;-78
2023/06/09 05:53:04;;;;;;;18.30;10.20;;;;;;;;;;110944;1256;22100;-78
2023/06/09 05:55:31;;;;;;;15.40;9.30;;;;;;;;;;110663;1273;22258;-78
2023/06/09 05:58:00;;;;;;;18.30;9.50;;;;;;;;;;110657;1273;22182;-78
2023/06/09 06:00:29;;;;;;;16.70;9.20;;;;;;;;;;110710;1273;22105;-77
2023/06/09 06:02:57;;;;;;;20.80;9.60;;;;;;;;;;110688;1255;22166;-77
2023/06/09 06:05:24;;;;;;;16.30;9.90;;;;;;;;;;110550;1274;22716;-78
2023/06/09 06:07:51;;;;;;;17.40;8.90;;;;;;;;;;110610;1274;23063;-78
2023/06/09 06:10:18;;;;;;;17.30;9.30;;;;;;;;;;110649;1274;22091;-78
2023/06/09 06:12:44;;;;;;;18.70;9.40;;;;;;;;;;110674;1251;22142;-77
2023/06/09 06:15:11;;;;;;;17.80;9.50;;;;;;;;;;110629;1272;22111;-78
2023/06/09 06:17:38;;;;;;;22.20;9.20;;;;;;;;;;110636;1273;22097;-78
2023/06/09 06:20:05;;;;;;;16.70;8.80;;;;;;;;;;110712;1273;22095;-78
2023/06/09 06:22:32;;;;;;;16.80;9.50;;;;;;;;;;110602;1274;22377;-81
2023/06/09 06:25:00;;;;;;;16.70;10.00;;;;;;;;;;110420;1257;22093;-79
2023/06/09 06:27:27;;;;;;;15.30;9.40;;;;;;;;;;110663;1275;22078;-79
2023/06/09 06:29:54;;;;;;;14.80;9.50;;;;;;;;;;110668;1274;22165;-80
2023/06/09 06:32:20;;;;;;;14.10;9.40;;;;;;;;;;110631;1275;22135;-80
2023/06/09 06:34:47;;;;;;;14.40;9.40;;;;;;;;;;110953;1256;22118;-79
2023/06/09 06:37:14;;;;;;;15.40;9.80;;;;;;;;;;110678;1273;22839;-80
2023/06/09 06:39:41;;;;;;;15.50;10.00;;;;;;;;;;110594;1274;22307;-81
2023/06/09 06:42:07;;;;;;;17.90;11.00;;;;;;;;;;110656;1274;22089;-79
2023/06/09 06:44:37;;;;;;;19.40;11.20;;;;;;;;;;110670;1256;22765;-80
2023/06/09 06:47:04;;;;;;;18.80;10.50;;;;;;;;;;110566;1275;22077;-79
2023/06/09 06:49:31;;;;;;;20.20;9.80;;;;;;;;;;110628;1275;22100;-79
2023/06/09 06:51:58;;;;;;;16.60;10.20;;;;;;;;;;110606;1275;22946;-78
2023/06/09 06:54:24;;;;;;;20.70;10.50;;;;;;;;;;110708;1259;22081;-78
2023/06/09 06:56:54;;;;;;;16.10;9.70;;;;;;;;;;110396;1275;22087;-79
2023/06/09 06:59:23;;;;;;;21.10;10.70;;;;;;;;;;110611;1275;22191;-79
2023/06/09 07:01:58;;;;;;;22.80;10.90;;;;;;;;;;110611;1275;22095;-80
2023/06/09 07:04:38;;;;;;;22.30;12.90;;;;;;;;;;110468;1259;22419;-86
2023/06/09 07:07:05;;;;;;;18.90;13.20;;;;;;;;;;110630;1274;22116;-81
2023/06/09 07:09:32;;;;;;;24.30;14.50;;;;;;;;;;110585;1275;22001;-80
2023/06/09 07:11:58;;;;;;;19.90;12.00;;;;;;;;;;110515;1275;22157;-80
2023/06/09 07:14:25;;;;;;;20.70;11.90;;;;;;;;;;110687;1256;22669;-80
2023/06/09 07:16:53;;;;;;;16.00;10.50;;;;;;;;;;110613;1275;22125;-79
2023/06/09 07:19:20;;;;;;;16.90;9.80;;;;;;;;;;110475;1275;22173;-80
2023/06/09 07:21:46;;;;;;;13.30;8.80;;;;;;;;;;110468;1275;22121;-80
2023/06/09 07:24:13;;;;;;;13.90;9.50;;;;;;;;;;110717;1257;22857;-79
2023/06/09 07:26:40;;;;;;;14.70;9.30;;;;;;;;;;110714;1275;22167;-80
2023/06/09 07:29:14;;;;;;;14.90;9.50;;;;;;;;;;110603;1275;22093;-81
2023/06/09 07:31:41;;;;;;;14.70;9.50;;;;;;;;;;110613;1275;22106;-80
2023/06/09 07:34:07;;;;;;;19.90;13.00;;;;;;;;;;110645;1253;22000;-80
2023/06/09 07:36:35;;;;;;;21.40;13.50;;;;;;;;;;110494;1275;22267;-80
2023/06/09 07:39:03;;;;;;;28.00;18.70;;;;;;;;;;110632;1275;22122;-80
2023/06/09 07:41:30;;;;;;;22.20;14.90;;;;;;;;;;110642;1275;22138;-80
2023/06/09 07:43:57;;;;;;;23.10;14.00;;;;;;;;;;110619;1275;22130;-80
2023/06/09 07:46:24;;;;;;;24.30;15.40;;;;;;;;;;110837;1259;22244;-80
2023/06/09 07:48:54;;;;;;;21.40;13.70;;;;;;;;;;110599;1275;22864;-80
2023/06/09 07:51:21;;;;;;;15.70;9.90;;;;;;;;;;110592;1275;22157;-80
2023/06/09 07:53:47;;;;;;;18.10;10.80;;;;;;;;;;110614;1275;22134;-80
2023/06/09 07:56:17;;;;;;;20.80;10.80;;;;;;;;;;110918;1256;22133;-79
2023/06/09 07:58:44;;;;;;;18.40;10.10;;;;;;;;;;110662;1275;22104;-81
2023/06/09 08:01:10;;;;;;;14.60;9.10;;;;;;;;;;110469;1275;22094;-80
2023/06/09 08:03:40;;;;;;;14.70;8.40;;;;;;;;;;110496;1275;22191;-80
2023/06/09 08:06:08;;;;;;;17.60;9.20;;;;;;;;;;111041;1256;22131;-80
2023/06/09 08:08:35;;;;;;;14.90;9.30;;;;;;;;;;110575;1275;22112;-81
2023/06/09 08:11:02;;;;;;;14.10;8.40;;;;;;;;;;110610;1275;22060;-80
2023/06/09 08:13:30;;;;;;;16.80;9.20;;;;;;;;;;110640;1275;22891;-80
2023/06/09 08:15:57;;;;;;;13.30;9.00;;;;;;;;;;110464;1260;22117;-80
2023/06/09 08:18:24;;;;;;;17.40;9.40;;;;;;;;;;110320;1276;22136;-81
2023/06/09 08:20:51;;;;;;;14.50;9.70;;;;;;;;;;110652;1275;22871;-80
2023/06/09 08:23:20;;;;;;;14.70;9.40;;;;;;;;;;110468;1275;22122;-80
2023/06/09 08:25:47;;;;;;;13.90;8.80;;;;;;;;;;110562;1258;22142;-80
2023/06/09 08:28:14;;;;;;;14.00;8.80;;;;;;;;;;110640;1275;22070;-81
2023/06/09 08:30:41;;;;;;;12.90;8.70;;;;;;;;;;110511;1273;23154;-81
2023/06/09 08:33:08;;;;;;;16.50;9.10;;;;;;;;;;110628;1275;22120;-81
2023/06/09 08:35:35;;;;;;;12.20;8.90;;;;;;;;;;110624;1267;22096;-82
2023/06/09 08:38:02;;;;;;;14.00;9.30;;;;;;;;;;110526;1276;22903;-81
2023/06/09 08:40:30;;;;;;;13.30;9.00;;;;;;;;;;110341;1277;22313;-81
2023/06/09 08:42:58;;;;;;;15.80;8.90;;;;;;;;;;110334;1277;22104;-81
2023/06/09 08:45:26;;;;;;;13.80;10.10;;;;;;;;;;110260;1253;22326;-81
2023/06/09 08:47:53;;;;;;;15.20;9.00;;;;;;;;;;110623;1276;22086;-80
2023/06/09 08:50:21;;;;;;;13.20;8.70;;;;;;;;;;110382;1276;22111;-81
2023/06/09 08:52:49;;;;;;;14.60;9.30;;;;;;;;;;110393;1276;22771;-81
2023/06/09 08:55:16;;;;;;;13.80;9.20;;;;;;;;;;110358;1276;22098;-81
2023/06/09 08:57:42;;;;;;;16.30;9.80;;;;;;;;;;110516;1259;22098;-82
2023/06/09 09:00:11;;;;;;;18.20;11.10;;;;;;;;;;110194;1277;22085;-82
2023/06/09 09:02:38;;;;;;;37.00;21.70;;;;;;;;;;110267;1277;22093;-82
2023/06/09 09:05:05;;;;;;;28.40;17.50;;;;;;;;;;110307;1277;22120;-82
2023/06/09 09:07:38;;;;;;;24.80;15.90;;;;;;;;;;110524;1262;22337;-83
2023/06/09 09:10:06;;;;;;;29.90;16.30;;;;;;;;;;110391;1276;22090;-82
2023/06/09 09:12:49;;;;;;;35.20;19.70;;;;;;;;;;110460;1276;22400;-82
2023/06/09 09:15:17;;;;;;;22.60;12.60;;;;;;;;;;110387;1275;22100;-82
2023/06/09 09:17:46;;;;;;;16.90;10.50;;;;;;;;;;110559;1259;22096;-82
2023/06/09 09:20:14;;;;;;;16.00;10.20;;;;;;;;;;110458;1277;22074;-82
2023/06/09 09:22:49;;;;;;;26.90;15.40;;;;;;;;;;110283;1277;22766;-83
2023/06/09 09:25:22;;;;;;;21.20;13.70;;;;;;;;;;110453;1277;22076;-82
2023/06/09 09:27:59;;;;;;;19.60;12.20;;;;;;;;;;110599;1260;22167;-82
2023/06/09 09:30:48;;;;;;;15.30;11.20;;;;;;;;;;110338;1276;22102;-81
2023/06/09 09:33:19;;;;;;;20.20;13.10;;;;;;;;;;110276;1276;22073;-81
2023/06/09 09:35:47;;;;;;;15.30;10.30;;;;;;;;;;110327;1276;22798;-82
2023/06/09 09:38:16;;;;;;;16.80;9.30;;;;;;;;;;110462;1258;22194;-82
2023/06/09 09:40:47;;;;;;;13.40;9.30;;;;;;;;;;110321;1278;22126;-82
2023/06/09 09:43:16;;;;;;;14.40;9.30;;;;;;;;;;110273;1278;22090;-83
2023/06/09 09:45:48;;;;;;;15.00;9.60;;;;;;;;;;110244;1278;23068;-83
2023/06/09 09:48:21;;;;;;;14.00;9.20;;;;;;;;;;110566;1256;22092;-83
2023/06/09 09:50:51;;;;;;;13.00;9.30;;;;;;;;;;110292;1278;22235;-83
2023/06/09 09:53:24;;;;;;;15.80;10.00;;;;;;;;;;110233;1278;22105;-83
2023/06/09 09:55:53;;;;;;;16.90;10.40;;;;;;;;;;110463;1278;22097;-84
2023/06/09 09:58:33;;;;;;;14.10;9.10;;;;;;;;;;110589;1259;22129;-84
2023/06/09 10:01:05;;;;;;;14.80;9.00;;;;;;;;;;110577;1276;21997;-84
2023/06/09 10:03:34;;;;;;;14.20;9.40;;;;;;;;;;110307;1276;22280;-83
2023/06/09 10:06:03;;;;;;;15.70;9.70;;;;;;;;;;110317;1276;22176;-83
2023/06/09 10:08:32;;;;;;;13.80;9.70;;;;;;;;;;110515;1256;22142;-83
2023/06/09 10:11:02;;;;;;;14.70;9.60;;;;;;;;;;110309;1278;22107;-83
2023/06/09 10:13:30;;;;;;;13.40;9.60;;;;;;;;;;110452;1275;22141;-83
2023/06/09 10:15:59;;;;;;;15.20;9.90;;;;;;;;;;110459;1277;22103;-82
2023/06/09 10:18:26;;;;;;;13.80;9.60;;;;;;;;;;110516;1259;22195;-83
2023/06/09 10:20:56;;;;;;;14.30;9.40;;;;;;;;;;110266;1278;22101;-82
2023/06/09 10:23:23;;;;;;;12.80;9.50;;;;;;;;;;110310;1278;22116;-82
2023/06/09 10:25:51;;;;;;;15.20;10.20;;;;;;;;;;110266;1278;22314;-82
2023/06/09 10:28:22;;;;;;;14.20;10.00;;;;;;;;;;110341;1260;22590;-83
2023/06/09 10:30:56;;;;;;;17.80;10.00;;;;;;;;;;110279;1277;22119;-83
2023/06/09 10:33:28;;;;;;;15.80;10.20;;;;;;;;;;110441;1277;22100;-83
2023/06/09 10:35:59;;;;;;;13.90;10.60;;;;;;;;;;110279;1277;22323;-83
2023/06/09 10:38:35;;;;;;;16.10;10.60;;;;;;;;;;110287;1262;22789;-83
2023/06/09 10:41:15;;;;;;;14.60;10.30;;;;;;;;;;110229;1278;22115;-83
2023/06/09 10:43:54;;;;;;;14.40;10.00;;;;;;;;;;110133;1278;23001;-83
2023/06/09 10:46:43;;;;;;;14.60;10.20;;;;;;;;;;110177;1278;22450;-83
2023/06/09 10:49:47;;;;;;;14.60;10.10;;;;;;;;;;110283;1259;22135;-83
2023/06/09 10:52:35;;;;;;;15.10;9.90;;;;;;;;;;110343;1278;22107;-83
2023/06/09 10:55:12;;;;;;;14.20;10.10;;;;;;;;;;110330;1278;22119;-83
2023/06/09 10:57:41;;;;;;;20.90;13.00;;;;;;;;;;110353;1277;22306;-83
2023/06/09 11:00:11;;;;;;;17.30;11.80;;;;;;;;;;110496;1262;22733;-83
2023/06/09 11:02:41;;;;;;;17.30;9.90;;;;;;;;;;110202;1278;23046;-83
2023/06/09 11:05:11;;;;;;;14.70;9.10;;;;;;;;;;110293;1278;22104;-82
2023/06/09 11:07:43;;;;;;;14.80;8.10;;;;;;;;;;110185;1278;22256;-82
2023/06/09 11:10:29;;;;;;;17.50;10.00;;;;;;;;;;110436;1262;22125;-82
2023/06/09 11:12:59;;;;;;;19.70;11.80;;;;;;;;;;110252;1276;22122;-82
2023/06/09 11:15:51;;;;;;;16.60;10.50;;;;;;;;;;110242;1277;22131;-82
2023/06/09 11:18:27;;;;;;;16.90;10.50;;;;;;;;;;110234;1257;22360;-84
2023/06/09 11:21:16;;;;;;;15.10;10.10;;;;;;;;;;110161;1278;22136;-83
2023/06/09 11:24:00;;;;;;;15.70;9.80;;;;;;;;;;110168;1278;22106;-81
2023/06/09 11:26:30;;;;;;;12.70;8.50;;;;;;;;;;110167;1278;23571;-82
2023/06/09 11:29:00;;;;;;;14.70;8.40;;;;;;;;;;110282;1254;22740;-81
2023/06/09 11:31:29;;;;;;;14.30;9.10;;;;;;;;;;110378;1277;22416;-82
2023/06/09 11:33:59;;;;;;;13.40;8.90;;;;;;;;;;110125;1278;22121;-81
2023/06/09 11:36:29;;;;;;;13.90;9.20;;;;;;;;;;110361;1278;22088;-81
2023/06/09 11:45:13;;;;;;;20.50;10.60;;;;;;;;;;103879;1303;545622;-82
2023/06/09 11:47:41;;;;;;;12.50;8.30;;;;;;;;;;106403;1287;22538;-85
2023/06/09 11:50:11;;;;;;;13.20;9.20;;;;;;;;;;106379;1287;22639;-83
2023/06/09 11:52:40;;;;;;;11.80;8.20;;;;;;;;;;106290;1287;24327;-83
2023/06/09 11:55:07;;;;;;;11.80;7.90;;;;;;;;;;106364;1269;22584;-81
2023/06/09 11:57:35;;;;;;;12.10;8.00;;;;;;;;;;106239;1287;22660;-86
2023/06/09 12:00:09;;;;;;;12.70;8.30;;;;;;;;;;104370;1285;2913340;-86
2023/06/09 12:02:40;;;;;;;12.10;8.50;;;;;;;;;;106508;1284;22580;-83
2023/06/09 12:05:08;;;;;;;10.90;7.90;;;;;;;;;;106441;1284;22479;-84
2023/06/09 12:07:36;;;;;;;13.30;8.70;;;;;;;;;;106421;1284;25416;-84
2023/06/09 12:10:03;;;;;;;12.30;8.70;;;;;;;;;;106403;1262;22562;-85
2023/06/09 12:12:30;;;;;;;12.90;8.80;;;;;;;;;;106383;1284;27066;-85
2023/06/09 12:14:57;;;;;;;13.50;8.80;;;;;;;;;;106399;1266;22605;-82
2023/06/09 12:17:24;;;;;;;12.80;8.70;;;;;;;;;;106463;1284;24307;-87
2023/06/09 12:19:51;;;;;;;12.10;8.70;;;;;;;;;;106504;1284;22552;-87
2023/06/09 12:22:19;;;;;;;13.00;8.60;;;;;;;;;;106496;1284;24199;-81
2023/06/09 12:24:46;;;;;;;13.80;8.40;;;;;;;;;;106512;1263;24653;-83
2023/06/09 12:27:13;;;;;;;13.50;8.50;;;;;;;;;;106403;1285;24234;-85
2023/06/09 12:29:40;;;;;;;13.10;9.20;;;;;;;;;;106362;1284;22487;-85
2023/06/09 12:32:10;;;;;;;14.80;9.20;;;;;;;;;;109947;1275;22097;-80
2023/06/09 12:34:37;;;;;;;12.40;8.90;;;;;;;;;;109933;1284;22106;-79
2023/06/09 12:37:04;;;;;;;14.70;9.20;;;;;;;;;;109979;1266;22145;-80
2023/06/09 12:39:32;;;;;;;16.40;12.10;;;;;;;;;;109959;1285;22904;-81
2023/06/09 12:42:09;;;;;;;18.70;12.50;;;;;;;;;;109933;1285;22156;-81
2023/06/09 12:44:36;;;;;;;13.70;9.70;;;;;;;;;;109935;1285;22106;-80
2023/06/09 12:47:02;;;;;;;13.20;8.70;;;;;;;;;;110093;1263;22129;-81
2023/06/09 12:49:30;;;;;;;15.40;9.20;;;;;;;;;;109955;1285;22099;-80
2023/06/09 12:51:57;;;;;;;12.80;8.50;;;;;;;;;;109952;1285;22450;-81
2023/06/09 12:54:25;;;;;;;13.40;8.20;;;;;;;;;;109934;1285;21732;-81
2023/06/09 12:56:53;;;;;;;12.70;8.60;;;;;;;;;;110170;1263;22156;-81
2023/06/09 12:59:20;;;;;;;13.00;7.90;;;;;;;;;;110126;1281;22908;-80
2023/06/09 13:01:47;;;;;;;13.50;9.00;;;;;;;;;;110099;1281;22094;-80
2023/06/09 13:04:15;;;;;;;12.60;8.30;;;;;;;;;;110065;1281;22118;-81
2023/06/09 13:06:42;;;;;;;12.80;8.60;;;;;;;;;;110228;1263;22992;-80
2023/06/09 13:09:09;;;;;;;12.80;8.90;;;;;;;;;;110104;1281;22216;-80
2023/06/09 13:11:36;;;;;;;12.40;8.40;;;;;;;;;;110138;1281;22331;-81
2023/06/09 13:14:02;;;;;;;13.00;8.90;;;;;;;;;;110145;1281;22002;-80
2023/06/09 13:16:31;;;;;;;13.60;9.40;;;;;;;;;;110205;1263;22133;-80
2023/06/09 13:18:58;;;;;;;11.40;8.80;;;;;;;;;;110112;1281;22119;-81
2023/06/09 13:21:27;;;;;;;14.20;8.00;;;;;;;;;;110132;1281;22157;-80
2023/06/09 13:23:54;;;;;;;12.00;8.20;;;;;;;;;;110418;1278;22089;-81
2023/06/09 13:26:21;;;;;;;10.50;7.50;;;;;;;;;;110178;1260;22239;-81
2023/06/09 13:28:49;;;;;;;11.50;6.80;;;;;;;;;;110387;1278;22049;-81
2023/06/09 13:31:16;;;;;;;10.10;6.60;;;;;;;;;;110259;1278;22100;-81
2023/06/09 13:33:43;;;;;;;10.30;6.00;;;;;;;;;;110393;1278;22133;-81
2023/06/09 13:36:12;;;;;;;9.90;5.50;;;;;;;;;;110390;1257;23285;-82
2023/06/09 13:38:39;;;;;;;8.50;5.50;;;;;;;;;;110224;1279;22190;-85
2023/06/09 13:41:05;;;;;;;9.60;5.00;;;;;;;;;;110192;1279;22133;-81
2023/06/09 13:43:32;;;;;;;8.90;5.20;;;;;;;;;;110329;1279;22793;-82
2023/06/09 13:45:59;;;;;;;9.60;4.90;;;;;;;;;;110336;1264;22133;-82
2023/06/09 13:48:26;;;;;;;8.80;4.80;;;;;;;;;;110384;1259;22752;-81
2023/06/09 13:50:53;;;;;;;10.00;4.90;;;;;;;;;;110327;1279;22288;-82
2023/06/09 13:53:22;;;;;;;9.40;5.00;;;;;;;;;;110323;1279;22824;-81
2023/06/09 13:55:48;;;;;;;8.80;5.10;;;;;;;;;;110191;1279;22113;-82
2023/06/09 13:58:15;;;;;;;11.70;5.30;;;;;;;;;;110218;1260;22315;-82
2023/06/09 14:00:44;;;;;;;8.60;4.90;;;;;;;;;;110183;1279;22097;-82
2023/06/09 14:03:11;;;;;;;9.00;4.80;;;;;;;;;;110337;1279;22251;-83
2023/06/09 14:05:38;;;;;;;10.20;4.80;;;;;;;;;;110338;1279;22083;-82
2023/06/09 14:08:05;;;;;;;10.10;4.80;;;;;;;;;;110382;1259;22870;-81
2023/06/09 14:10:31;;;;;;;9.10;4.30;;;;;;;;;;110332;1279;22084;-82
2023/06/09 14:12:58;;;;;;;9.00;4.90;;;;;;;;;;110208;1279;22791;-81
2023/06/09 14:15:25;;;;;;;8.30;4.90;;;;;;;;;;110182;1279;22834;-81
2023/06/09 14:17:52;;;;;;;10.20;5.30;;;;;;;;;;110473;1260;22192;-81
2023/06/09 14:20:20;;;;;;;10.50;5.30;;;;;;;;;;110177;1279;22136;-82
2023/06/09 14:22:47;;;;;;;8.70;5.50;;;;;;;;;;110313;1279;22130;-82
2023/06/09 14:25:18;;;;;;;8.50;4.40;;;;;;;;;;110356;1279;22090;-82
2023/06/09 14:27:49;;;;;;;8.40;5.00;;;;;;;;;;110250;1260;22123;-81
2023/06/09 14:30:18;;;;;;;10.60;5.20;;;;;;;;;;110194;1279;22134;-82
2023/06/09 14:32:47;;;;;;;8.30;5.00;;;;;;;;;;110193;1279;22288;-82
2023/06/09 14:35:19;;;;;;;11.70;6.00;;;;;;;;;;110328;1279;22086;-81
2023/06/09 14:37:47;;;;;;;9.70;5.70;;;;;;;;;;110220;1256;22273;-82
2023/06/09 14:40:15;;;;;;;9.40;5.70;;;;;;;;;;110115;1279;23112;-82
2023/06/09 14:42:42;;;;;;;9.00;5.60;;;;;;;;;;110177;1279;22124;-82
2023/06/09 14:45:11;;;;;;;12.20;5.90;;;;;;;;;;110113;1279;22230;-81
2023/06/09 14:47:38;;;;;;;8.60;5.90;;;;;;;;;;110310;1257;22167;-82